sensor_id;sensor_type;location;lat;lon;timestamp;temperature;humidity
38436;DHT22;24220;48.168;14.024;2022-10-22T00:01:18;17.20;63.10
38436;DHT22;24220;48.168;14.024;2022-10-22T00:03:46;17.10;63.00
38436;DHT22;24220;48.168;14.024;2022-10-22T00:06:18;17.20;63.10
38436;DHT22;24220;48.168;14.024;2022-10-22T00:08:45;17.10;63.00
38436;DHT22;24220;48.168;14.024;2022-10-22T00:11:16;17.10;63.10
38436;DHT22;24220;48.168;14.024;2022-10-22T00:13:45;17.10;63.30
38436;DHT22;24220;48.168;14.024;2022-10-22T00:16:13;17.10;63.10
38436;DHT22;24220;48.168;14.024;2022-10-22T00:18:40;17.10;63.00
38436;DHT22;24220;48.168;14.024;2022-10-22T00:21:10;17.10;63.10
38436;DHT22;24220;48.168;14.024;2022-10-22T00:23:42;17.10;63.30
38436;DHT22;24220;48.168;14.024;2022-10-22T00:26:09;17.10;63.00
38436;DHT22;24220;48.168;14.024;2022-10-22T00:28:40;17.10;63.00
38436;DHT22;24220;48.168;14.024;2022-10-22T00:31:07;17.10;63.20
38436;DHT22;24220;48.168;14.024;2022-10-22T00:33:35;17.10;63.30
38436;DHT22;24220;48.168;14.024;2022-10-22T00:36:05;17.10;63.30
38436;DHT22;24220;48.168;14.024;2022-10-22T00:38:34;17.10;63.20
38436;DHT22;24220;48.168;14.024;2022-10-22T00:41:04;17.10;63.30
38436;DHT22;24220;48.168;14.024;2022-10-22T00:43:31;17.10;63.40
38436;DHT22;24220;48.168;14.024;2022-10-22T00:45:59;17.10;63.40
38436;DHT22;24220;48.168;14.024;2022-10-22T00:48:29;17.10;63.30
38436;DHT22;24220;48.168;14.024;2022-10-22T00:51:05;17.10;63.30
38436;DHT22;24220;48.168;14.024;2022-10-22T00:53:39;17.10;63.30
38436;DHT22;24220;48.168;14.024;2022-10-22T00:56:08;17.10;63.30
38436;DHT22;24220;48.168;14.024;2022-10-22T00:58:42;17.10;63.20
38436;DHT22;24220;48.168;14.024;2022-10-22T01:01:17;17.10;63.30
38436;DHT22;24220;48.168;14.024;2022-10-22T01:03:49;17.10;63.20
38436;DHT22;24220;48.168;14.024;2022-10-22T01:06:28;17.10;63.20
38436;DHT22;24220;48.168;14.024;2022-10-22T01:17:00;17.10;63.20
38436;DHT22;24220;48.168;14.024;2022-10-22T01:20:02;17.10;63.10
38436;DHT22;24220;48.168;14.024;2022-10-22T01:22:42;17.10;63.00
38436;DHT22;24220;48.168;14.024;2022-10-22T01:30:45;17.00;62.90
38436;DHT22;24220;48.168;14.024;2022-10-22T01:33:18;17.00;62.80
38436;DHT22;24220;48.168;14.024;2022-10-22T01:35:48;17.00;62.90
38436;DHT22;24220;48.168;14.024;2022-10-22T01:38:20;17.00;62.80
38436;DHT22;24220;48.168;14.024;2022-10-22T01:40:50;17.00;62.80
38436;DHT22;24220;48.168;14.024;2022-10-22T01:43:17;17.00;62.70
38436;DHT22;24220;48.168;14.024;2022-10-22T01:45:55;17.00;62.80
38436;DHT22;24220;48.168;14.024;2022-10-22T01:48:32;16.90;62.80
38436;DHT22;24220;48.168;14.024;2022-10-22T01:53:55;16.90;63.00
38436;DHT22;24220;48.168;14.024;2022-10-22T01:59:17;16.90;63.20
38436;DHT22;24220;48.168;14.024;2022-10-22T02:06:47;16.90;63.40
38436;DHT22;24220;48.168;14.024;2022-10-22T02:09:20;16.90;63.50
38436;DHT22;24220;48.168;14.024;2022-10-22T02:11:49;16.90;63.60
38436;DHT22;24220;48.168;14.024;2022-10-22T02:14:18;16.90;63.70
38436;DHT22;24220;48.168;14.024;2022-10-22T02:16:48;16.90;63.80
38436;DHT22;24220;48.168;14.024;2022-10-22T02:19:23;16.90;63.70
38436;DHT22;24220;48.168;14.024;2022-10-22T02:21:54;16.90;63.60
38436;DHT22;24220;48.168;14.024;2022-10-22T02:24:21;16.90;63.50
38436;DHT22;24220;48.168;14.024;2022-10-22T02:27:26;16.90;63.60
38436;DHT22;24220;48.168;14.024;2022-10-22T02:35:12;16.90;63.50
38436;DHT22;24220;48.168;14.024;2022-10-22T02:37:40;16.90;63.40
38436;DHT22;24220;48.168;14.024;2022-10-22T02:40:08;16.90;63.50
38436;DHT22;24220;48.168;14.024;2022-10-22T02:42:39;16.80;63.30
38436;DHT22;24220;48.168;14.024;2022-10-22T02:45:09;16.80;63.40
38436;DHT22;24220;48.168;14.024;2022-10-22T02:47:37;16.90;63.60
38436;DHT22;24220;48.168;14.024;2022-10-22T02:50:05;16.90;63.30
38436;DHT22;24220;48.168;14.024;2022-10-22T02:52:36;16.80;63.50
38436;DHT22;24220;48.168;14.024;2022-10-22T02:55:05;16.80;63.60
38436;DHT22;24220;48.168;14.024;2022-10-22T02:57:32;16.80;63.80
38436;DHT22;24220;48.168;14.024;2022-10-22T03:00:00;16.80;64.00
38436;DHT22;24220;48.168;14.024;2022-10-22T03:02:27;16.80;64.10
38436;DHT22;24220;48.168;14.024;2022-10-22T03:04:57;16.70;64.10
38436;DHT22;24220;48.168;14.024;2022-10-22T03:07:27;16.80;64.20
38436;DHT22;24220;48.168;14.024;2022-10-22T03:09:54;16.80;64.30
38436;DHT22;24220;48.168;14.024;2022-10-22T03:12:21;16.70;64.30
38436;DHT22;24220;48.168;14.024;2022-10-22T03:14:49;16.70;64.30
38436;DHT22;24220;48.168;14.024;2022-10-22T03:17:17;16.80;64.40
38436;DHT22;24220;48.168;14.024;2022-10-22T03:19:45;16.80;64.40
38436;DHT22;24220;48.168;14.024;2022-10-22T03:22:18;16.80;64.40
38436;DHT22;24220;48.168;14.024;2022-10-22T03:24:47;16.80;64.40
38436;DHT22;24220;48.168;14.024;2022-10-22T03:27:18;16.80;64.30
38436;DHT22;24220;48.168;14.024;2022-10-22T03:29:46;16.80;64.10
38436;DHT22;24220;48.168;14.024;2022-10-22T03:32:15;16.80;64.80
38436;DHT22;24220;48.168;14.024;2022-10-22T03:34:43;16.80;64.00
38436;DHT22;24220;48.168;14.024;2022-10-22T03:37:10;16.80;64.00
38436;DHT22;24220;48.168;14.024;2022-10-22T03:39:38;16.80;64.00
38436;DHT22;24220;48.168;14.024;2022-10-22T03:42:08;16.80;64.00
38436;DHT22;24220;48.168;14.024;2022-10-22T03:44:37;16.80;64.00
38436;DHT22;24220;48.168;14.024;2022-10-22T03:47:05;16.80;64.00
38436;DHT22;24220;48.168;14.024;2022-10-22T03:49:32;16.70;64.00
38436;DHT22;24220;48.168;14.024;2022-10-22T03:52:11;16.70;64.10
38436;DHT22;24220;48.168;14.024;2022-10-22T03:54:41;16.70;64.30
38436;DHT22;24220;48.168;14.024;2022-10-22T03:57:09;16.70;64.30
38436;DHT22;24220;48.168;14.024;2022-10-22T03:59:39;16.70;64.30
38436;DHT22;24220;48.168;14.024;2022-10-22T04:02:07;16.70;64.30
38436;DHT22;24220;48.168;14.024;2022-10-22T04:04:37;16.70;64.30
38436;DHT22;24220;48.168;14.024;2022-10-22T04:07:05;16.70;64.30
38436;DHT22;24220;48.168;14.024;2022-10-22T04:09:37;16.70;64.30
38436;DHT22;24220;48.168;14.024;2022-10-22T04:12:05;16.70;64.40
38436;DHT22;24220;48.168;14.024;2022-10-22T04:14:35;16.70;64.30
38436;DHT22;24220;48.168;14.024;2022-10-22T04:17:02;16.70;64.40
38436;DHT22;24220;48.168;14.024;2022-10-22T04:19:30;16.70;64.30
38436;DHT22;24220;48.168;14.024;2022-10-22T04:21:58;16.70;64.30
38436;DHT22;24220;48.168;14.024;2022-10-22T04:24:26;16.80;64.30
38436;DHT22;24220;48.168;14.024;2022-10-22T04:26:53;16.70;64.10
38436;DHT22;24220;48.168;14.024;2022-10-22T04:29:24;16.70;64.10
38436;DHT22;24220;48.168;14.024;2022-10-22T04:31:52;16.70;64.10
38436;DHT22;24220;48.168;14.024;2022-10-22T04:34:19;16.70;64.10
38436;DHT22;24220;48.168;14.024;2022-10-22T04:36:47;16.70;64.10
38436;DHT22;24220;48.168;14.024;2022-10-22T04:39:16;16.70;64.80
38436;DHT22;24220;48.168;14.024;2022-10-22T04:41:43;16.70;64.20
38436;DHT22;24220;48.168;14.024;2022-10-22T04:44:11;16.60;64.30
38436;DHT22;24220;48.168;14.024;2022-10-22T04:46:43;16.60;64.40
38436;DHT22;24220;48.168;14.024;2022-10-22T04:49:11;16.60;64.30
38436;DHT22;24220;48.168;14.024;2022-10-22T04:51:40;16.60;64.30
38436;DHT22;24220;48.168;14.024;2022-10-22T04:54:10;16.60;64.40
38436;DHT22;24220;48.168;14.024;2022-10-22T04:56:37;16.60;64.40
38436;DHT22;24220;48.168;14.024;2022-10-22T04:59:07;16.60;64.40
38436;DHT22;24220;48.168;14.024;2022-10-22T05:01:36;16.60;64.50
38436;DHT22;24220;48.168;14.024;2022-10-22T05:04:11;16.60;64.60
38436;DHT22;24220;48.168;14.024;2022-10-22T05:06:42;16.60;64.80
38436;DHT22;24220;48.168;14.024;2022-10-22T05:09:16;16.50;64.90
38436;DHT22;24220;48.168;14.024;2022-10-22T05:11:45;16.50;65.20
38436;DHT22;24220;48.168;14.024;2022-10-22T05:14:17;16.50;65.50
38436;DHT22;24220;48.168;14.024;2022-10-22T05:16:47;16.50;65.90
38436;DHT22;24220;48.168;14.024;2022-10-22T05:19:22;16.50;66.30
38436;DHT22;24220;48.168;14.024;2022-10-22T05:21:54;16.50;66.50
38436;DHT22;24220;48.168;14.024;2022-10-22T05:24:22;16.50;67.00
38436;DHT22;24220;48.168;14.024;2022-10-22T05:26:51;16.50;66.80
38436;DHT22;24220;48.168;14.024;2022-10-22T05:29:18;16.50;67.10
38436;DHT22;24220;48.168;14.024;2022-10-22T05:31:46;16.50;67.40
38436;DHT22;24220;48.168;14.024;2022-10-22T05:34:14;16.50;67.60
38436;DHT22;24220;48.168;14.024;2022-10-22T05:36:43;16.50;67.80
38436;DHT22;24220;48.168;14.024;2022-10-22T05:39:11;16.50;67.90
38436;DHT22;24220;48.168;14.024;2022-10-22T05:41:43;16.50;68.10
38436;DHT22;24220;48.168;14.024;2022-10-22T05:44:11;16.40;68.40
38436;DHT22;24220;48.168;14.024;2022-10-22T05:46:43;16.40;68.50
38436;DHT22;24220;48.168;14.024;2022-10-22T05:49:13;16.40;69.00
38436;DHT22;24220;48.168;14.024;2022-10-22T05:51:43;16.40;68.20
38436;DHT22;24220;48.168;14.024;2022-10-22T05:54:16;16.40;69.20
38436;DHT22;24220;48.168;14.024;2022-10-22T05:56:43;16.40;69.70
38436;DHT22;24220;48.168;14.024;2022-10-22T05:59:13;16.40;70.00
38436;DHT22;24220;48.168;14.024;2022-10-22T06:01:41;16.30;70.30
38436;DHT22;24220;48.168;14.024;2022-10-22T06:04:10;16.30;70.60
38436;DHT22;24220;48.168;14.024;2022-10-22T06:06:43;16.30;71.10
38436;DHT22;24220;48.168;14.024;2022-10-22T06:09:19;16.30;71.40
38436;DHT22;24220;48.168;14.024;2022-10-22T06:11:52;16.30;71.60
38436;DHT22;24220;48.168;14.024;2022-10-22T06:14:20;16.30;71.90
38436;DHT22;24220;48.168;14.024;2022-10-22T06:16:48;16.30;72.00
38436;DHT22;24220;48.168;14.024;2022-10-22T06:19:20;16.30;72.30
38436;DHT22;24220;48.168;14.024;2022-10-22T06:21:50;16.30;72.40
38436;DHT22;24220;48.168;14.024;2022-10-22T06:24:18;16.30;72.70
38436;DHT22;24220;48.168;14.024;2022-10-22T06:26:51;16.30;72.80
38436;DHT22;24220;48.168;14.024;2022-10-22T06:29:21;16.30;73.10
38436;DHT22;24220;48.168;14.024;2022-10-22T06:31:51;16.30;73.10
38436;DHT22;24220;48.168;14.024;2022-10-22T06:34:18;16.40;74.10
38436;DHT22;24220;48.168;14.024;2022-10-22T06:36:46;16.40;73.60
38436;DHT22;24220;48.168;14.024;2022-10-22T06:39:15;16.40;73.70
38436;DHT22;24220;48.168;14.024;2022-10-22T06:41:43;16.40;73.90
38436;DHT22;24220;48.168;14.024;2022-10-22T06:44:13;16.50;74.10
38436;DHT22;24220;48.168;14.024;2022-10-22T06:46:41;16.50;74.30
38436;DHT22;24220;48.168;14.024;2022-10-22T06:49:13;16.50;74.40
38436;DHT22;24220;48.168;14.024;2022-10-22T06:51:43;16.50;74.60
38436;DHT22;24220;48.168;14.024;2022-10-22T06:54:11;16.50;74.60
38436;DHT22;24220;48.168;14.024;2022-10-22T06:56:38;16.50;74.70
38436;DHT22;24220;48.168;14.024;2022-10-22T06:59:05;16.60;74.90
38436;DHT22;24220;48.168;14.024;2022-10-22T07:01:34;16.60;75.00
38436;DHT22;24220;48.168;14.024;2022-10-22T07:04:05;16.60;75.00
38436;DHT22;24220;48.168;14.024;2022-10-22T07:06:32;16.70;75.10
38436;DHT22;24220;48.168;14.024;2022-10-22T07:08:59;16.70;75.00
38436;DHT22;24220;48.168;14.024;2022-10-22T07:11:36;16.70;75.10
38436;DHT22;24220;48.168;14.024;2022-10-22T07:14:07;16.80;75.40
38436;DHT22;24220;48.168;14.024;2022-10-22T07:16:37;16.80;75.40
38436;DHT22;24220;48.168;14.024;2022-10-22T07:19:08;16.80;75.50
38436;DHT22;24220;48.168;14.024;2022-10-22T07:21:35;16.80;75.60
38436;DHT22;24220;48.168;14.024;2022-10-22T07:24:03;16.80;75.70
38436;DHT22;24220;48.168;14.024;2022-10-22T07:26:30;16.80;75.70
38436;DHT22;24220;48.168;14.024;2022-10-22T07:29:00;16.90;75.80
38436;DHT22;24220;48.168;14.024;2022-10-22T07:31:30;16.90;75.80
38436;DHT22;24220;48.168;14.024;2022-10-22T07:33:57;16.90;75.90
38436;DHT22;24220;48.168;14.024;2022-10-22T07:36:25;17.00;76.10
38436;DHT22;24220;48.168;14.024;2022-10-22T07:38:55;17.00;76.20
38436;DHT22;24220;48.168;14.024;2022-10-22T07:41:23;17.00;76.40
38436;DHT22;24220;48.168;14.024;2022-10-22T07:43:51;17.00;76.30
38436;DHT22;24220;48.168;14.024;2022-10-22T07:46:23;17.00;76.40
38436;DHT22;24220;48.168;14.024;2022-10-22T07:48:51;17.00;76.50
38436;DHT22;24220;48.168;14.024;2022-10-22T07:51:18;17.00;76.50
38436;DHT22;24220;48.168;14.024;2022-10-22T07:53:45;17.10;76.60
38436;DHT22;24220;48.168;14.024;2022-10-22T07:56:13;17.10;76.60
38436;DHT22;24220;48.168;14.024;2022-10-22T07:58:40;17.20;76.70
38436;DHT22;24220;48.168;14.024;2022-10-22T08:01:10;17.20;76.80
38436;DHT22;24220;48.168;14.024;2022-10-22T08:03:42;17.20;77.00
38436;DHT22;24220;48.168;14.024;2022-10-22T08:06:12;17.20;77.00
38436;DHT22;24220;48.168;14.024;2022-10-22T08:08:41;17.20;77.00
38436;DHT22;24220;48.168;14.024;2022-10-22T08:11:12;17.30;77.00
38436;DHT22;24220;48.168;14.024;2022-10-22T08:13:39;17.30;77.00
38436;DHT22;24220;48.168;14.024;2022-10-22T08:16:13;17.30;77.10
38436;DHT22;24220;48.168;14.024;2022-10-22T08:18:40;17.40;76.60
38436;DHT22;24220;48.168;14.024;2022-10-22T08:21:08;17.40;76.90
38436;DHT22;24220;48.168;14.024;2022-10-22T08:23:36;17.40;77.20
38436;DHT22;24220;48.168;14.024;2022-10-22T08:26:06;17.40;77.30
38436;DHT22;24220;48.168;14.024;2022-10-22T08:28:33;17.40;77.30
38436;DHT22;24220;48.168;14.024;2022-10-22T08:31:05;17.40;77.40
38436;DHT22;24220;48.168;14.024;2022-10-22T08:33:33;17.40;77.50
38436;DHT22;24220;48.168;14.024;2022-10-22T08:36:05;17.40;77.50
38436;DHT22;24220;48.168;14.024;2022-10-22T08:38:35;17.50;77.60
38436;DHT22;24220;48.168;14.024;2022-10-22T08:41:17;17.50;77.70
38436;DHT22;24220;48.168;14.024;2022-10-22T08:48:53;17.60;77.50
38436;DHT22;24220;48.168;14.024;2022-10-22T08:51:33;17.60;77.70
38436;DHT22;24220;48.168;14.024;2022-10-22T08:56:44;17.70;77.50
38436;DHT22;24220;48.168;14.024;2022-10-22T08:59:19;17.70;77.40
38436;DHT22;24220;48.168;14.024;2022-10-22T09:01:52;17.70;77.20
38436;DHT22;24220;48.168;14.024;2022-10-22T09:04:32;17.80;77.80
38436;DHT22;24220;48.168;14.024;2022-10-22T09:07:03;17.80;77.20
38436;DHT22;24220;48.168;14.024;2022-10-22T09:09:41;17.90;77.00
38436;DHT22;24220;48.168;14.024;2022-10-22T09:12:11;17.90;77.10
38436;DHT22;24220;48.168;14.024;2022-10-22T09:14:46;17.90;77.00
38436;DHT22;24220;48.168;14.024;2022-10-22T09:17:34;17.90;76.90
38436;DHT22;24220;48.168;14.024;2022-10-22T09:25:45;18.00;77.00
38436;DHT22;24220;48.168;14.024;2022-10-22T09:28:15;18.00;76.70
38436;DHT22;24220;48.168;14.024;2022-10-22T09:30:45;18.10;76.70
38436;DHT22;24220;48.168;14.024;2022-10-22T09:35:50;18.10;76.80
38436;DHT22;24220;48.168;14.024;2022-10-22T09:38:22;18.10;76.90
38436;DHT22;24220;48.168;14.024;2022-10-22T09:40:53;18.10;76.90
38436;DHT22;24220;48.168;14.024;2022-10-22T09:43:21;18.10;76.90
38436;DHT22;24220;48.168;14.024;2022-10-22T09:45:55;18.10;76.90
38436;DHT22;24220;48.168;14.024;2022-10-22T09:53:44;18.10;77.00
38436;DHT22;24220;48.168;14.024;2022-10-22T09:56:27;18.20;76.90
38436;DHT22;24220;48.168;14.024;2022-10-22T09:58:57;18.20;76.80
38436;DHT22;24220;48.168;14.024;2022-10-22T10:01:31;18.20;76.70
38436;DHT22;24220;48.168;14.024;2022-10-22T10:04:08;18.20;76.70
38436;DHT22;24220;48.168;14.024;2022-10-22T10:06:38;18.20;76.70
38436;DHT22;24220;48.168;14.024;2022-10-22T10:09:20;18.20;76.50
38436;DHT22;24220;48.168;14.024;2022-10-22T10:12:04;18.20;76.60
38436;DHT22;24220;48.168;14.024;2022-10-22T10:49:54;18.30;76.20
38436;DHT22;24220;48.168;14.024;2022-10-22T10:59:00;18.40;76.20
38436;DHT22;24220;48.168;14.024;2022-10-22T11:05:10;18.40;76.30
38436;DHT22;24220;48.168;14.024;2022-10-22T11:10:57;18.40;76.20
38436;DHT22;24220;48.168;14.024;2022-10-22T11:22:29;18.50;76.10
38436;DHT22;24220;48.168;14.024;2022-10-22T11:25:23;18.50;76.00
38436;DHT22;24220;48.168;14.024;2022-10-22T11:28:16;18.50;76.20
38436;DHT22;24220;48.168;14.024;2022-10-22T11:31:13;18.50;76.30
38436;DHT22;24220;48.168;14.024;2022-10-22T11:37:02;18.50;76.30
38436;DHT22;24220;48.168;14.024;2022-10-22T11:39:38;18.50;76.10
38436;DHT22;24220;48.168;14.024;2022-10-22T11:42:38;18.60;76.00
38436;DHT22;24220;48.168;14.024;2022-10-22T11:58:43;18.60;76.10
38436;DHT22;24220;48.168;14.024;2022-10-22T12:01:27;18.60;76.30
38436;DHT22;24220;48.168;14.024;2022-10-22T12:07:01;18.70;76.30
38436;DHT22;24220;48.168;14.024;2022-10-22T12:09:31;18.60;76.40
38436;DHT22;24220;48.168;14.024;2022-10-22T12:12:18;18.70;76.30
38436;DHT22;24220;48.168;14.024;2022-10-22T12:14:57;18.70;76.40
38436;DHT22;24220;48.168;14.024;2022-10-22T12:17:59;18.70;76.40
38436;DHT22;24220;48.168;14.024;2022-10-22T12:20:53;18.70;76.50
38436;DHT22;24220;48.168;14.024;2022-10-22T12:23:30;18.70;76.50
38436;DHT22;24220;48.168;14.024;2022-10-22T12:26:43;18.80;76.60
38436;DHT22;24220;48.168;14.024;2022-10-22T12:29:21;18.80;76.80
38436;DHT22;24220;48.168;14.024;2022-10-22T12:31:52;18.90;76.80
38436;DHT22;24220;48.168;14.024;2022-10-22T12:34:23;18.80;76.70
38436;DHT22;24220;48.168;14.024;2022-10-22T12:36:57;18.80;76.80
38436;DHT22;24220;48.168;14.024;2022-10-22T12:39:45;18.90;76.90
38436;DHT22;24220;48.168;14.024;2022-10-22T12:42:37;18.90;76.90
38436;DHT22;24220;48.168;14.024;2022-10-22T12:45:28;18.90;76.80
38436;DHT22;24220;48.168;14.024;2022-10-22T12:48:14;18.90;76.80
38436;DHT22;24220;48.168;14.024;2022-10-22T12:51:01;19.00;76.80
38436;DHT22;24220;48.168;14.024;2022-10-22T12:53:49;19.00;76.90
38436;DHT22;24220;48.168;14.024;2022-10-22T12:56:28;19.00;76.70
38436;DHT22;24220;48.168;14.024;2022-10-22T12:59:19;19.00;76.70
38436;DHT22;24220;48.168;14.024;2022-10-22T13:02:00;19.10;76.70
38436;DHT22;24220;48.168;14.024;2022-10-22T13:04:40;19.10;76.60
38436;DHT22;24220;48.168;14.024;2022-10-22T13:07:50;19.10;76.70
38436;DHT22;24220;48.168;14.024;2022-10-22T13:10:34;19.10;77.00
38436;DHT22;24220;48.168;14.024;2022-10-22T13:13:39;19.20;77.00
38436;DHT22;24220;48.168;14.024;2022-10-22T13:16:28;19.20;77.20
38436;DHT22;24220;48.168;14.024;2022-10-22T13:19:31;19.20;77.00
38436;DHT22;24220;48.168;14.024;2022-10-22T13:22:04;19.20;77.00
38436;DHT22;24220;48.168;14.024;2022-10-22T13:24:48;19.30;77.10
38436;DHT22;24220;48.168;14.024;2022-10-22T13:27:29;19.30;77.00
38436;DHT22;24220;48.168;14.024;2022-10-22T13:30:13;19.30;
38436;DHT22;24220;48.168;14.024;2022-10-22T13:33:04;19.30;76.50
38436;DHT22;24220;48.168;14.024;2022-10-22T13:36:02;19.40;76.30
38436;DHT22;24220;48.168;14.024;2022-10-22T13:39:02;19.40;76.20
38436;DHT22;24220;48.168;14.024;2022-10-22T13:41:37;19.40;76.00
38436;DHT22;24220;48.168;14.024;2022-10-22T13:44:34;19.40;75.20
38436;DHT22;24220;48.168;14.024;2022-10-22T13:47:27;19.40;75.30
38436;DHT22;24220;48.168;14.024;2022-10-22T13:50:31;19.40;75.30
38436;DHT22;24220;48.168;14.024;2022-10-22T13:53:04;19.50;75.40
38436;DHT22;24220;48.168;14.024;2022-10-22T13:55:32;19.50;74.90
38436;DHT22;24220;48.168;14.024;2022-10-22T13:58:00;19.50;74.80
38436;DHT22;24220;48.168;14.024;2022-10-22T14:00:30;19.50;74.80
38436;DHT22;24220;48.168;14.024;2022-10-22T14:02:58;19.50;74.60
38436;DHT22;24220;48.168;14.024;2022-10-22T14:05:28;19.50;74.50
38436;DHT22;24220;48.168;14.024;2022-10-22T14:08:37;19.50;74.50
38436;DHT22;24220;48.168;14.024;2022-10-22T14:11:25;19.50;74.30
38436;DHT22;24220;48.168;14.024;2022-10-22T14:14:28;19.60;74.30
38436;DHT22;24220;48.168;14.024;2022-10-22T14:17:19;19.50;74.00
38436;DHT22;24220;48.168;14.024;2022-10-22T14:20:20;19.60;74.10
38436;DHT22;24220;48.168;14.024;2022-10-22T14:23:22;19.50;73.80
38436;DHT22;24220;48.168;14.024;2022-10-22T14:25:50;19.50;73.80
38436;DHT22;24220;48.168;14.024;2022-10-22T14:28:31;19.50;73.70
38436;DHT22;24220;48.168;14.024;2022-10-22T14:31:31;19.50;73.90
38436;DHT22;24220;48.168;14.024;2022-10-22T14:34:13;19.50;73.70
38436;DHT22;24220;48.168;14.024;2022-10-22T14:36:48;19.50;73.60
38436;DHT22;24220;48.168;14.024;2022-10-22T14:39:26;19.50;73.60
38436;DHT22;24220;48.168;14.024;2022-10-22T14:42:00;19.60;73.60
38436;DHT22;24220;48.168;14.024;2022-10-22T14:44:44;19.50;73.50
38436;DHT22;24220;48.168;14.024;2022-10-22T14:47:27;19.50;73.50
38436;DHT22;24220;48.168;14.024;2022-10-22T14:50:05;19.50;73.50
38436;DHT22;24220;48.168;14.024;2022-10-22T14:53:10;19.50;73.60
38436;DHT22;24220;48.168;14.024;2022-10-22T14:55:49;19.60;73.60
38436;DHT22;24220;48.168;14.024;2022-10-22T14:58:46;19.60;73.70
38436;DHT22;24220;48.168;14.024;2022-10-22T15:01:26;19.60;73.40
38436;DHT22;24220;48.168;14.024;2022-10-22T15:04:07;19.60;73.20
38436;DHT22;24220;48.168;14.024;2022-10-22T15:06:51;19.60;73.00
38436;DHT22;24220;48.168;14.024;2022-10-22T15:09:36;19.60;72.90
38436;DHT22;24220;48.168;14.024;2022-10-22T15:12:12;19.50;72.80
38436;DHT22;24220;48.168;14.024;2022-10-22T15:15:16;19.50;72.90
38436;DHT22;24220;48.168;14.024;2022-10-22T15:18:08;19.50;73.00
38436;DHT22;24220;48.168;14.024;2022-10-22T15:20:43;19.50;72.90
38436;DHT22;24220;48.168;14.024;2022-10-22T15:23:11;19.50;72.80
38436;DHT22;24220;48.168;14.024;2022-10-22T15:25:52;19.50;72.80
38436;DHT22;24220;48.168;14.024;2022-10-22T15:28:43;19.50;72.90
38436;DHT22;24220;48.168;14.024;2022-10-22T15:34:57;19.50;72.80
38436;DHT22;24220;48.168;14.024;2022-10-22T15:37:49;19.50;72.90
38436;DHT22;24220;48.168;14.024;2022-10-22T15:40:32;19.40;72.70
38436;DHT22;24220;48.168;14.024;2022-10-22T15:43:18;19.40;73.00
38436;DHT22;24220;48.168;14.024;2022-10-22T15:46:18;19.40;73.00
38436;DHT22;24220;48.168;14.024;2022-10-22T15:48:52;19.30;73.90
38436;DHT22;24220;48.168;14.024;2022-10-22T15:51:30;19.30;73.30
38436;DHT22;24220;48.168;14.024;2022-10-22T15:54:01;19.30;73.50
38436;DHT22;24220;48.168;14.024;2022-10-22T15:56:41;19.30;73.50
38436;DHT22;24220;48.168;14.024;2022-10-22T15:59:18;19.30;73.70
38436;DHT22;24220;48.168;14.024;2022-10-22T16:01:57;19.30;73.80
38436;DHT22;24220;48.168;14.024;2022-10-22T16:04:35;19.30;73.80
38436;DHT22;24220;48.168;14.024;2022-10-22T16:07:03;19.30;74.50
38436;DHT22;24220;48.168;14.024;2022-10-22T16:12:57;19.30;73.90
38436;DHT22;24220;48.168;14.024;2022-10-22T16:15:28;19.30;73.70
38436;DHT22;24220;48.168;14.024;2022-10-22T16:18:22;19.30;73.70
38436;DHT22;24220;48.168;14.024;2022-10-22T16:21:00;19.30;73.60
38436;DHT22;24220;48.168;14.024;2022-10-22T16:23:46;19.30;73.50
38436;DHT22;24220;48.168;14.024;2022-10-22T16:26:32;19.30;73.30
38436;DHT22;24220;48.168;14.024;2022-10-22T16:29:07;19.30;73.20
38436;DHT22;24220;48.168;14.024;2022-10-22T16:31:46;19.20;72.80
38436;DHT22;24220;48.168;14.024;2022-10-22T16:34:27;19.20;72.90
38436;DHT22;24220;48.168;14.024;2022-10-22T16:37:05;19.10;72.70
38436;DHT22;24220;48.168;14.024;2022-10-22T16:39:40;19.10;72.90
38436;DHT22;24220;48.168;14.024;2022-10-22T16:42:08;19.20;72.40
38436;DHT22;24220;48.168;14.024;2022-10-22T16:44:37;19.10;72.30
38436;DHT22;24220;48.168;14.024;2022-10-22T16:47:15;19.10;73.00
38436;DHT22;24220;48.168;14.024;2022-10-22T16:49:52;19.00;72.30
38436;DHT22;24220;48.168;14.024;2022-10-22T16:52:28;19.00;72.50
38436;DHT22;24220;48.168;14.024;2022-10-22T16:54:59;18.90;72.30
38436;DHT22;24220;48.168;14.024;2022-10-22T16:57:53;18.90;72.30
38436;DHT22;24220;48.168;14.024;2022-10-22T17:00:24;18.90;72.30
38436;DHT22;24220;48.168;14.024;2022-10-22T17:03:11;18.90;72.20
38436;DHT22;24220;48.168;14.024;2022-10-22T17:05:57;18.80;72.20
38436;DHT22;24220;48.168;14.024;2022-10-22T17:09:02;18.80;72.20
38436;DHT22;24220;48.168;14.024;2022-10-22T17:11:38;18.80;72.20
38436;DHT22;24220;48.168;14.024;2022-10-22T17:14:13;18.70;72.20
38436;DHT22;24220;48.168;14.024;2022-10-22T17:16:46;18.70;72.30
38436;DHT22;24220;48.168;14.024;2022-10-22T17:19:29;18.70;72.20
38436;DHT22;24220;48.168;14.024;2022-10-22T17:22:09;18.70;72.40
38436;DHT22;24220;48.168;14.024;2022-10-22T17:25:10;18.70;72.50
38436;DHT22;24220;48.168;14.024;2022-10-22T17:27:44;18.60;72.40
38436;DHT22;24220;48.168;14.024;2022-10-22T17:30:20;18.60;72.20
38436;DHT22;24220;48.168;14.024;2022-10-22T17:33:06;18.60;72.10
38436;DHT22;24220;48.168;14.024;2022-10-22T17:35:39;18.60;72.10
38436;DHT22;24220;48.168;14.024;2022-10-22T17:38:22;18.60;72.20
38436;DHT22;24220;48.168;14.024;2022-10-22T17:41:14;18.60;72.00
38436;DHT22;24220;48.168;14.024;2022-10-22T17:44:00;18.50;72.00
38436;DHT22;24220;48.168;14.024;2022-10-22T17:46:49;18.50;71.90
38436;DHT22;24220;48.168;14.024;2022-10-22T17:49:26;18.50;71.80
38436;DHT22;24220;48.168;14.024;2022-10-22T17:51:56;18.50;71.70
38436;DHT22;24220;48.168;14.024;2022-10-22T17:54:33;18.40;71.70
38436;DHT22;24220;48.168;14.024;2022-10-22T17:57:05;18.40;71.80
38436;DHT22;24220;48.168;14.024;2022-10-22T17:59:39;18.40;71.70
38436;DHT22;24220;48.168;14.024;2022-10-22T18:02:16;18.30;71.60
38436;DHT22;24220;48.168;14.024;2022-10-22T18:04:58;18.30;71.60
38436;DHT22;24220;48.168;14.024;2022-10-22T18:07:29;18.30;71.60
38436;DHT22;24220;48.168;14.024;2022-10-22T18:10:15;18.30;71.70
38436;DHT22;24220;48.168;14.024;2022-10-22T18:13:04;18.30;71.70
38436;DHT22;24220;48.168;14.024;2022-10-22T18:15:52;18.30;71.70
38436;DHT22;24220;48.168;14.024;2022-10-22T18:18:46;18.20;71.60
38436;DHT22;24220;48.168;14.024;2022-10-22T18:21:21;18.20;71.70